Time,TemperatureF,DewpointF,PressureIn,WindDirection,WindDirectionDegrees,WindSpeedMPH,WindSpeedGustMPH,Humidity,HourlyPrecipIn,Conditions,Clouds,dailyrainin,SolarRadiationWatts/m^2,SoftwareType,DateUTC
2013-03-07 00:03:00,44.2,14.0,30.05,SSW,194,2.0,3.0,29,0.00,,CLR,0.00,0.00,VWS V14.01,2013-03-07 07:03:00,
2013-03-07 00:08:00,43.9,13.7,30.04,SSW,194,0.0,1.0,29,0.00,,CLR,0.00,0.00,VWS V14.01,2013-03-07 07:08:00,
2013-03-07 00:13:00,43.7,13.5,30.04,SSW,194,0.0,3.0,29,0.00,,CLR,0.00,0.00,VWS V14.01,2013-03-07 07:13:00,
2013-03-07 00:18:00,43.6,13.5,30.05,SSW,194,0.0,0.0,29,0.00,,CLR,0.00,0.00,VWS V14.01,2013-03-07 07:18:00,
2013-03-07 00:23:00,43.4,13.3,30.05,SSW,194,0.0,0.0,29,0.00,,CLR,0.00,0.00,VWS V14.01,2013-03-07 07:23:00,
2013-03-07 00:28:00,43.3,13.2,30.05,SSW,194,0.0,0.0,29,0.00,,CLR,0.00,0.00,VWS V14.01,2013-03-07 07:28:00,
2013-03-07 00:33:00,43.0,13.7,30.05,SSW,194,0.0,0.0,30,0.00,,CLR,0.00,0.00,VWS V14.01,2013-03-07 07:33:00,
2013-03-07 00:38:00,42.7,13.4,30.05,SSW,194,0.0,0.0,30,0.00,,CLR,0.00,0.00,VWS V14.01,2013-03-07 07:38:00,
2013-03-07 00:43:00,42.4,13.2,30.05,SSW,194,0.0,0.0,30,0.00,,CLR,0.00,0.00,VWS V14.01,2013-03-07 07:43:00,
2013-03-07 00:48:00,42.2,13.8,30.05,SSW,194,0.0,2.0,31,0.00,,CLR,0.00,0.00,VWS V14.01,2013-03-07 07:48:00,
2013-03-07 00:53:00,41.9,13.5,30.05,SSW,194,0.0,0.0,31,0.00,,CLR,0.00,0.00,VWS V14.01,2013-03-07 07:53:00,
2013-03-07 00:59:00,41.7,14.0,30.05,SSW,194,0.0,0.0,32,0.00,,CLR,0.00,0.00,VWS V14.01,2013-03-07 07:59:00,
2013-03-07 01:04:00,41.4,13.8,30.05,SSW,194,0.0,0.0,32,0.00,,CLR,0.00,0.00,VWS V14.01,2013-03-07 08:04:00,
2013-03-07 01:09:00,41.3,14.4,30.05,SSW,194,0.0,0.0,33,0.00,,CLR,0.00,0.00,VWS V14.01,2013-03-07 08:09:00,
2013-03-07 01:14:00,41.0,14.8,30.06,SSW,194,0.0,2.0,34,0.00,,CLR,0.00,0.00,VWS V14.01,2013-03-07 08:14:00,
2013-03-07 01:19:00,40.7,14.5,30.06,SSW,194,0.0,0.0,34,0.00,,CLR,0.00,0.00,VWS V14.01,2013-03-07 08:19:00,
2013-03-07 01:24:00,40.5,15.0,30.06,SSW,194,0.0,3.0,35,0.00,,CLR,0.00,0.00,VWS V14.01,2013-03-07 08:24:00,
2013-03-07 01:29:00,40.4,16.2,30.06,SSW,194,0.0,0.0,37,0.00,,CLR,0.00,0.00,VWS V14.01,2013-03-07 08:29:00,
2013-03-07 01:34:00,40.2,16.0,30.06,SSW,194,0.0,0.0,37,0.00,,CLR,0.00,0.00,VWS V14.01,2013-03-07 08:34:00,
2013-03-07 01:39:00,40.0,16.5,30.06,SSW,194,0.0,0.0,38,0.00,,CLR,0.00,0.00,VWS V14.01,2013-03-07 08:39:00,
2013-03-07 01:44:00,39.8,15.7,30.06,SSW,194,0.0,0.0,37,0.00,,CLR,0.00,0.00,VWS V14.01,2013-03-07 08:44:00,
2013-03-07 01:49:00,39.6,16.7,30.06,SSW,194,0.0,0.0,39,0.00,,CLR,0.00,0.00,VWS V14.01,2013-03-07 08:49:00,
2013-03-07 01:54:00,39.4,17.1,30.06,SSW,194,0.0,2.0,40,0.00,,CLR,0.00,0.00,VWS V14.01,2013-03-07 08:54:00,
2013-03-07 01:59:00,39.3,17.0,30.06,SSW,194,0.0,1.0,40,0.00,,CLR,0.00,0.00,VWS V14.01,2013-03-07 08:59:00,
2013-03-07 02:04:00,39.4,18.2,30.06,SSW,194,2.0,3.0,42,0.00,,CLR,0.00,0.00,VWS V14.01,2013-03-07 09:04:00,
2013-03-07 02:09:00,39.7,18.0,30.05,SSW,194,3.0,5.0,41,0.00,,CLR,0.00,0.00,VWS V14.01,2013-03-07 09:09:00,
2013-03-07 02:14:00,39.9,18.1,30.05,WNW,286,0.0,4.0,41,0.00,,CLR,0.00,0.00,VWS V14.01,2013-03-07 09:14:00,
2013-03-07 02:19:00,40.0,17.6,30.05,WNW,286,2.0,2.0,40,0.00,,CLR,0.00,0.00,VWS V14.01,2013-03-07 09:19:00,
2013-03-07 02:24:00,40.2,17.8,30.05,WNW,286,1.0,3.0,40,0.00,,CLR,0.00,0.00,VWS V14.01,2013-03-07 09:24:00,
2013-03-07 02:30:00,40.3,17.9,30.05,WNW,286,0.0,2.0,40,0.00,,CLR,0.00,0.00,VWS V14.01,2013-03-07 09:30:00,
2013-03-07 02:35:00,40.3,17.9,30.05,WNW,286,0.0,1.0,40,0.00,,CLR,0.00,0.00,VWS V14.01,2013-03-07 09:35:00,
2013-03-07 02:40:00,40.3,17.3,30.05,WNW,286,0.0,2.0,39,0.00,,CLR,0.00,0.00,VWS V14.01,2013-03-07 09:40:00,
2013-03-07 02:45:00,40.2,16.6,30.05,WNW,286,4.0,4.0,38,0.00,,CLR,0.00,0.00,VWS V14.01,2013-03-07 09:45:00,
2013-03-07 02:50:00,40.0,14.6,30.05,WNW,287,2.0,4.0,35,0.00,,CLR,0.00,0.00,VWS V14.01,2013-03-07 09:50:00,
2013-03-07 02:55:00,39.8,13.1,30.05,WNW,287,0.0,3.0,33,0.00,,CLR,0.00,0.00,VWS V14.01,2013-03-07 09:55:00,
2013-03-07 03:00:00,39.7,12.3,30.05,WNW,287,0.0,0.0,32,0.00,,CLR,0.00,0.00,VWS V14.01,2013-03-07 10:00:00,
2013-03-07 03:05:00,39.7,13.0,30.05,WNW,287,0.0,1.0,33,0.00,,CLR,0.00,0.00,VWS V14.01,2013-03-07 10:05:00,
2013-03-07 03:10:00,39.5,12.8,30.05,WNW,287,0.0,1.0,33,0.00,,CLR,0.00,0.00,VWS V14.01,2013-03-07 10:10:00,
2013-03-07 03:15:00,39.5,13.5,30.05,WNW,287,0.0,2.0,34,0.00,,CLR,0.00,0.00,VWS V14.01,2013-03-07 10:15:00,
2013-03-07 03:20:00,39.4,13.4,30.05,WNW,287,0.0,0.0,34,0.00,,CLR,0.00,0.00,VWS V14.01,2013-03-07 10:20:00,
2013-03-07 03:26:00,39.4,14.0,30.05,WNW,287,0.0,0.0,35,0.00,,CLR,0.00,0.00,VWS V14.01,2013-03-07 10:26:00,
2013-03-07 03:31:00,39.3,13.9,30.05,WNW,287,0.0,0.0,35,0.00,,CLR,0.00,0.00,VWS V14.01,2013-03-07 10:31:00,
2013-03-07 03:36:00,39.1,14.4,30.05,WNW,287,0.0,0.0,36,0.00,,CLR,0.00,0.00,VWS V14.01,2013-03-07 10:36:00,
2013-03-07 03:41:00,38.9,14.2,30.05,WNW,287,0.0,0.0,36,0.00,,CLR,0.00,0.00,VWS V14.01,2013-03-07 10:41:00,
2013-03-07 03:46:00,38.7,14.1,30.06,WNW,287,0.0,0.0,36,0.00,,CLR,0.00,0.00,VWS V14.01,2013-03-07 10:46:00,
2013-03-07 03:51:00,38.4,14.4,30.06,WNW,287,0.0,0.0,37,0.00,,CLR,0.00,0.00,VWS V14.01,2013-03-07 10:51:00,
2013-03-07 03:56:00,38.2,14.2,30.06,WNW,287,0.0,0.0,37,0.00,,CLR,0.00,0.00,VWS V14.01,2013-03-07 10:56:00,
2013-03-07 04:01:00,38.0,14.7,30.06,WNW,287,0.0,0.0,38,0.00,,CLR,0.00,0.00,VWS V14.01,2013-03-07 11:01:00,
2013-03-07 04:06:00,37.8,14.5,30.06,WNW,287,0.0,0.0,38,0.00,,CLR,0.00,0.00,VWS V14.01,2013-03-07 11:06:00,
2013-03-07 04:12:00,37.6,14.3,30.06,WNW,287,0.0,0.0,38,0.00,,CLR,0.00,0.00,VWS V14.01,2013-03-07 11:12:00,
2013-03-07 04:17:00,37.3,14.0,30.06,WNW,287,0.0,0.0,38,0.00,,CLR,0.00,0.00,VWS V14.01,2013-03-07 11:17:00,
2013-03-07 04:22:00,37.1,14.4,30.07,WNW,287,0.0,0.0,39,0.00,,CLR,0.00,0.00,VWS V14.01,2013-03-07 11:22:00,
2013-03-07 04:27:00,36.8,14.2,30.07,WNW,287,0.0,0.0,39,0.00,,CLR,0.00,0.00,VWS V14.01,2013-03-07 11:27:00,
2013-03-07 04:32:00,36.5,13.3,30.07,WNW,287,0.0,0.0,38,0.00,,CLR,0.00,0.00,VWS V14.01,2013-03-07 11:32:00,
2013-03-07 04:37:00,36.3,13.1,30.07,WNW,287,0.0,3.0,38,0.00,,CLR,0.00,0.00,VWS V14.01,2013-03-07 11:37:00,
2013-03-07 04:42:00,36.0,12.9,30.07,WNW,287,0.0,0.0,38,0.00,,CLR,0.00,0.00,VWS V14.01,2013-03-07 11:42:00,
2013-03-07 04:47:00,35.8,12.7,30.07,WNW,287,1.0,1.0,38,0.00,,CLR,0.00,0.00,VWS V14.01,2013-03-07 11:47:00,
2013-03-07 04:52:00,35.6,12.5,30.07,WNW,287,0.0,3.0,38,0.00,,CLR,0.00,0.00,VWS V14.01,2013-03-07 11:52:00,
2013-03-07 04:57:00,35.5,11.8,30.07,WNW,287,0.0,2.0,37,0.00,,CLR,0.00,0.00,VWS V14.01,2013-03-07 11:57:00,
2013-03-07 05:02:00,35.2,11.6,30.07,WNW,287,0.0,1.0,37,0.00,,CLR,0.00,0.00,VWS V14.01,2013-03-07 12:02:00,
2013-03-07 05:07:00,35.1,12.1,30.07,WNW,287,0.0,0.0,38,0.00,,CLR,0.00,0.00,VWS V14.01,2013-03-07 12:07:00,
2013-03-07 05:13:00,35.0,12.0,30.07,WNW,287,0.0,0.0,38,0.00,,CLR,0.00,0.00,VWS V14.01,2013-03-07 12:13:00,
2013-03-07 05:18:00,34.8,11.8,30.08,WNW,287,0.0,2.0,38,0.00,,CLR,0.00,0.00,VWS V14.01,2013-03-07 12:18:00,
2013-03-07 05:23:00,34.7,12.3,30.08,WNW,287,2.0,2.0,39,0.00,,CLR,0.00,0.00,VWS V14.01,2013-03-07 12:23:00,
2013-03-07 05:28:00,34.7,12.9,30.08,WNW,287,1.0,5.0,40,0.00,,CLR,0.00,0.00,VWS V14.01,2013-03-07 12:28:00,
2013-03-07 05:33:00,34.8,12.4,30.08,WNW,287,2.0,5.0,39,0.00,,CLR,0.00,0.00,VWS V14.01,2013-03-07 12:33:00,
2013-03-07 05:38:00,34.9,12.5,30.07,WNW,287,2.0,3.0,39,0.00,,CLR,0.00,0.00,VWS V14.01,2013-03-07 12:38:00,
2013-03-07 05:43:00,35.0,12.6,30.07,WNW,287,3.0,6.0,39,0.00,,CLR,0.00,0.00,VWS V14.01,2013-03-07 12:43:00,
2013-03-07 05:48:00,35.2,12.1,30.07,WNW,287,0.0,3.0,38,0.00,,CLR,0.00,0.00,VWS V14.01,2013-03-07 12:48:00,
2013-03-07 05:53:00,35.2,12.1,30.07,WNW,287,0.0,1.0,38,0.00,,CLR,0.00,0.00,VWS V14.01,2013-03-07 12:53:00,
2013-03-07 05:58:00,35.2,12.1,30.07,WNW,287,0.0,2.0,38,0.00,,CLR,0.00,0.00,VWS V14.01,2013-03-07 12:58:00,
2013-03-07 06:04:00,35.1,11.5,30.08,WNW,287,0.0,1.0,37,0.00,,CLR,0.00,0.00,VWS V14.01,2013-03-07 13:04:00,
2013-03-07 06:09:00,35.1,12.1,30.08,WNW,287,0.0,0.0,38,0.00,,CLR,0.00,0.00,VWS V14.01,2013-03-07 13:09:00,
2013-03-07 06:14:00,35.1,12.1,30.08,WNW,287,1.0,1.0,38,0.00,,CLR,0.00,0.00,VWS V14.01,2013-03-07 13:14:00,
2013-03-07 06:19:00,35.0,12.6,30.08,WNW,287,0.0,5.0,39,0.00,,CLR,0.00,0.00,VWS V14.01,2013-03-07 13:19:00,
2013-03-07 06:24:00,35.0,12.6,30.08,WNW,287,2.0,4.0,39,0.00,,CLR,0.00,0.00,VWS V14.01,2013-03-07 13:24:00,
2013-03-07 06:29:00,35.0,12.6,30.08,WNW,287,3.0,4.0,39,0.00,,CLR,0.00,5.00,VWS V14.01,2013-03-07 13:29:00,
2013-03-07 06:34:00,35.0,12.6,30.08,WNW,287,0.0,5.0,39,0.00,,CLR,0.00,7.00,VWS V14.01,2013-03-07 13:34:00,
2013-03-07 06:39:00,35.0,12.0,30.08,WNW,287,0.0,2.0,38,0.00,,CLR,0.00,9.00,VWS V14.01,2013-03-07 13:39:00,
2013-03-07 06:44:00,35.0,12.6,30.08,WNW,287,0.0,3.0,39,0.00,,CLR,0.00,11.00,VWS V14.01,2013-03-07 13:44:00,
2013-03-07 06:49:00,35.0,12.0,30.09,WNW,287,0.0,0.0,38,0.00,,CLR,0.00,16.00,VWS V14.01,2013-03-07 13:49:00,
2013-03-07 06:54:00,35.0,12.0,30.09,WNW,287,0.0,0.0,38,0.00,,CLR,0.00,18.00,VWS V14.01,2013-03-07 13:54:00,
2013-03-07 06:59:00,34.9,11.9,30.09,WNW,287,0.0,0.0,38,0.00,,CLR,0.00,19.00,VWS V14.01,2013-03-07 13:59:00,
2013-03-07 07:04:00,34.9,12.5,30.09,WNW,287,0.0,0.0,39,0.00,,CLR,0.00,21.00,VWS V14.01,2013-03-07 14:04:00,
2013-03-07 07:09:00,35.0,12.6,30.09,WNW,287,0.0,0.0,39,0.00,,CLR,0.00,23.00,VWS V14.01,2013-03-07 14:09:00,
2013-03-07 07:14:00,35.2,12.7,30.09,WNW,287,0.0,0.0,39,0.00,,CLR,0.00,25.00,VWS V14.01,2013-03-07 14:14:00,
2013-03-07 07:19:00,35.5,13.0,30.09,WNW,287,2.0,3.0,39,0.00,,CLR,0.00,25.00,VWS V14.01,2013-03-07 14:19:00,
2013-03-07 07:24:00,35.7,13.8,30.09,WNW,287,0.0,1.0,40,0.00,,CLR,0.00,46.00,VWS V14.01,2013-03-07 14:24:00,
2013-03-07 07:29:00,35.8,13.3,30.09,WNW,287,0.0,0.0,39,0.00,,CLR,0.00,74.00,VWS V14.01,2013-03-07 14:29:00,
2013-03-07 07:34:00,35.9,13.4,30.10,WNW,287,0.0,0.0,39,0.00,,CLR,0.00,213.00,VWS V14.01,2013-03-07 14:34:00,
2013-03-07 07:39:00,36.1,13.6,30.10,WNW,287,0.0,0.0,39,0.00,,CLR,0.00,237.00,VWS V14.01,2013-03-07 14:39:00,
2013-03-07 07:44:00,38.3,14.3,30.10,WNW,287,0.0,0.0,37,0.00,,CLR,0.00,262.00,VWS V14.01,2013-03-07 14:44:00,
2013-03-07 07:49:00,39.7,13.6,30.10,WNW,287,0.0,0.0,34,0.00,,CLR,0.00,279.00,VWS V14.01,2013-03-07 14:49:00,
2013-03-07 07:55:00,41.3,13.7,30.10,WNW,287,0.0,0.0,32,0.00,,CLR,0.00,299.00,VWS V14.01,2013-03-07 14:55:00,
2013-03-07 08:00:00,43.0,14.4,30.10,WNW,287,2.0,2.0,31,0.00,,CLR,0.00,318.00,VWS V14.01,2013-03-07 15:00:00,
2013-03-07 08:05:00,43.6,14.2,30.10,WNW,287,0.0,1.0,30,0.00,,CLR,0.00,338.00,VWS V14.01,2013-03-07 15:05:00,
2013-03-07 08:10:00,44.2,14.0,30.10,WNW,287,0.0,0.0,29,0.00,,CLR,0.00,355.00,VWS V14.01,2013-03-07 15:10:00,
2013-03-07 08:15:00,44.7,14.4,30.10,WNW,287,0.0,0.0,29,0.00,,CLR,0.00,373.00,VWS V14.01,2013-03-07 15:15:00,
2013-03-07 08:20:00,44.8,14.5,30.10,WNW,287,0.0,0.0,29,0.00,,CLR,0.00,392.00,VWS V14.01,2013-03-07 15:20:00,
2013-03-07 08:25:00,45.9,14.6,30.11,WNW,287,0.0,4.0,28,0.00,,CLR,0.00,408.00,VWS V14.01,2013-03-07 15:25:00,
2013-03-07 08:30:00,46.5,14.3,30.11,WNW,287,2.0,3.0,27,0.00,,CLR,0.00,425.00,VWS V14.01,2013-03-07 15:30:00,
2013-03-07 08:35:00,46.5,15.2,30.11,WNW,287,2.0,3.0,28,0.00,,CLR,0.00,441.00,VWS V14.01,2013-03-07 15:35:00,
2013-03-07 08:40:00,46.5,15.2,30.11,WNW,287,0.0,3.0,28,0.00,,CLR,0.00,461.00,VWS V14.01,2013-03-07 15:40:00,
2013-03-07 08:46:00,46.8,15.4,30.11,WNW,287,0.0,3.0,28,0.00,,CLR,0.00,476.00,VWS V14.01,2013-03-07 15:46:00,
2013-03-07 08:51:00,47.5,16.0,30.11,WNW,287,0.0,2.0,28,0.00,,CLR,0.00,492.00,VWS V14.01,2013-03-07 15:51:00,
2013-03-07 08:56:00,48.2,15.8,30.11,WNW,287,0.0,2.0,27,0.00,,CLR,0.00,510.00,VWS V14.01,2013-03-07 15:56:00,
2013-03-07 09:01:00,48.7,15.4,30.11,WNW,287,1.0,2.0,26,0.00,,CLR,0.00,527.00,VWS V14.01,2013-03-07 16:01:00,
2013-03-07 09:06:00,49.7,16.2,30.11,WNW,287,0.0,4.0,26,0.00,,CLR,0.00,540.00,VWS V14.01,2013-03-07 16:06:00,
2013-03-07 09:11:00,50.4,16.8,30.11,WNW,287,1.0,2.0,26,0.00,,CLR,0.00,555.00,VWS V14.01,2013-03-07 16:11:00,
2013-03-07 09:16:00,50.6,17.0,30.10,WNW,290,0.0,4.0,26,0.00,,CLR,0.00,571.00,VWS V14.01,2013-03-07 16:16:00,
2013-03-07 09:21:00,51.3,16.7,30.10,WNW,290,1.0,4.0,25,0.00,,CLR,0.00,587.00,VWS V14.01,2013-03-07 16:21:00,
2013-03-07 09:26:00,51.5,16.9,30.10,WNW,290,3.0,3.0,25,0.00,,CLR,0.00,601.00,VWS V14.01,2013-03-07 16:26:00,
2013-03-07 09:31:00,51.5,17.8,30.10,WNW,291,0.0,2.0,26,0.00,,CLR,0.00,613.00,VWS V14.01,2013-03-07 16:31:00,
2013-03-07 09:36:00,52.3,18.5,30.10,WNW,291,0.0,3.0,26,0.00,,CLR,0.00,628.00,VWS V14.01,2013-03-07 16:36:00,
2013-03-07 09:41:00,53.0,19.0,30.10,WNW,291,0.0,3.0,26,0.00,,CLR,0.00,640.00,VWS V14.01,2013-03-07 16:41:00,
2013-03-07 09:46:00,53.8,17.9,30.10,WNW,291,1.0,3.0,24,0.00,,CLR,0.00,652.00,VWS V14.01,2013-03-07 16:46:00,
2013-03-07 09:51:00,54.6,18.5,30.09,WNW,291,1.0,3.0,24,0.00,,CLR,0.00,664.00,VWS V14.01,2013-03-07 16:51:00,
2013-03-07 09:56:00,54.8,18.7,30.09,WNW,291,0.0,2.0,24,0.00,,CLR,0.00,677.00,VWS V14.01,2013-03-07 16:56:00,
2013-03-07 10:01:00,55.6,18.4,30.09,WNW,291,4.0,4.0,23,0.00,,CLR,0.00,687.00,VWS V14.01,2013-03-07 17:01:00,
2013-03-07 10:07:00,56.4,19.1,30.09,WNW,291,2.0,2.0,23,0.00,,CLR,0.00,700.00,VWS V14.01,2013-03-07 17:07:00,
2013-03-07 10:12:00,57.2,18.7,30.09,WNW,291,3.0,3.0,22,0.00,,CLR,0.00,712.00,VWS V14.01,2013-03-07 17:12:00,
2013-03-07 10:17:00,57.6,18.0,30.09,WNW,291,0.0,0.0,21,0.00,,CLR,0.00,721.00,VWS V14.01,2013-03-07 17:17:00,
2013-03-07 10:22:00,58.4,18.6,30.09,WNW,291,0.0,2.0,21,0.00,,CLR,0.00,733.00,VWS V14.01,2013-03-07 17:22:00,
2013-03-07 10:27:00,59.5,18.4,30.09,WNW,291,0.0,4.0,20,0.00,,CLR,0.00,740.00,VWS V14.01,2013-03-07 17:27:00,
2013-03-07 10:32:00,59.6,18.5,30.09,WNW,291,0.0,1.0,20,0.00,,CLR,0.00,747.00,VWS V14.01,2013-03-07 17:32:00,
2013-03-07 10:37:00,60.0,18.8,30.09,WNW,291,0.0,1.0,20,0.00,,CLR,0.00,758.00,VWS V14.01,2013-03-07 17:37:00,
2013-03-07 10:42:00,60.9,19.6,30.09,WNW,291,0.0,2.0,20,0.00,,CLR,0.00,765.00,VWS V14.01,2013-03-07 17:42:00,
2013-03-07 10:47:00,61.4,18.8,30.09,WNW,291,0.0,1.0,19,0.00,,CLR,0.00,773.00,VWS V14.01,2013-03-07 17:47:00,
2013-03-07 10:52:00,61.5,18.9,30.09,WNW,291,0.0,3.0,19,0.00,,CLR,0.00,779.00,VWS V14.01,2013-03-07 17:52:00,
2013-03-07 10:57:00,63.2,19.0,30.09,WNW,291,2.0,4.0,18,0.00,,CLR,0.00,784.00,VWS V14.01,2013-03-07 17:57:00,
2013-03-07 11:02:00,63.5,20.5,30.08,WNW,291,0.0,4.0,19,0.00,,CLR,0.00,791.00,VWS V14.01,2013-03-07 18:02:00,
2013-03-07 11:08:00,64.3,19.9,30.08,WNW,291,1.0,4.0,18,0.00,,CLR,0.00,798.00,VWS V14.01,2013-03-07 18:08:00,
2013-03-07 11:13:00,64.2,21.1,30.08,WNW,291,1.0,1.0,19,0.00,,CLR,0.00,805.00,VWS V14.01,2013-03-07 18:13:00,
2013-03-07 11:18:00,65.6,21.0,30.08,WNW,291,0.0,3.0,18,0.00,,CLR,0.00,812.00,VWS V14.01,2013-03-07 18:18:00,
2013-03-07 11:23:00,66.0,20.0,30.08,WNW,291,0.0,2.0,17,0.00,,CLR,0.00,814.00,VWS V14.01,2013-03-07 18:23:00,
2013-03-07 11:28:00,66.5,21.7,30.08,WNW,291,0.0,2.0,18,0.00,,CLR,0.00,817.00,VWS V14.01,2013-03-07 18:28:00,
2013-03-07 11:33:00,66.8,22.0,30.08,East,86,0.0,5.0,18,0.00,,CLR,0.00,823.00,VWS V14.01,2013-03-07 18:33:00,
2013-03-07 11:38:00,67.3,22.4,30.07,East,96,6.0,6.0,18,0.00,,CLR,0.00,823.00,VWS V14.01,2013-03-07 18:38:00,
2013-03-07 11:43:00,67.2,20.9,30.07,NE,40,2.0,6.0,17,0.00,,CLR,0.00,826.00,VWS V14.01,2013-03-07 18:43:00,
2013-03-07 11:48:00,67.7,21.4,30.07,SSE,158,0.0,5.0,17,0.00,,CLR,0.00,824.00,VWS V14.01,2013-03-07 18:48:00,
2013-03-07 11:53:00,68.1,20.2,30.07,ESE,106,0.0,7.0,16,0.00,,CLR,0.00,830.00,VWS V14.01,2013-03-07 18:53:00,
2013-03-07 11:58:00,68.6,19.1,30.06,South,179,0.0,5.0,15,0.00,,CLR,0.00,830.00,VWS V14.01,2013-03-07 18:58:00,
2013-03-07 12:03:00,68.8,20.8,30.06,SSE,159,3.0,5.0,16,0.00,,FEW160,0.00,828.00,VWS V14.01,2013-03-07 19:03:00,
2013-03-07 12:09:00,69.8,20.1,30.06,East,96,3.0,8.0,15,0.00,,FEW160,0.00,826.00,VWS V14.01,2013-03-07 19:09:00,
2013-03-07 12:14:00,69.5,19.9,30.06,South,184,0.0,6.0,15,0.00,,FEW160,0.00,828.00,VWS V14.01,2013-03-07 19:14:00,
2013-03-07 12:19:00,68.9,20.9,30.05,ESE,109,3.0,9.0,16,0.00,,FEW160,0.00,824.00,VWS V14.01,2013-03-07 19:19:00,
2013-03-07 12:24:00,68.8,19.3,30.05,East,88,3.0,5.0,15,0.00,,FEW160,0.00,824.00,VWS V14.01,2013-03-07 19:24:00,
2013-03-07 12:29:00,69.7,21.5,30.05,SSE,163,5.0,5.0,16,0.00,,FEW160,0.00,826.00,VWS V14.01,2013-03-07 19:29:00,
2013-03-07 12:34:00,71.0,19.4,30.05,SSW,193,2.0,6.0,14,0.00,,FEW160,0.00,821.00,VWS V14.01,2013-03-07 19:34:00,
2013-03-07 12:39:00,71.5,19.8,30.04,SSW,194,3.0,5.0,14,0.00,,FEW160,0.00,819.00,VWS V14.01,2013-03-07 19:39:00,
2013-03-07 12:44:00,70.5,19.0,30.04,WSW,248,4.0,5.0,14,0.00,,FEW160,0.00,812.00,VWS V14.01,2013-03-07 19:44:00,
2013-03-07 12:49:00,71.2,21.2,30.03,South,179,3.0,5.0,15,0.00,,FEW160,0.00,807.00,VWS V14.01,2013-03-07 19:49:00,
2013-03-07 12:54:00,71.6,18.2,30.03,SW,221,0.0,5.0,13,0.00,,FEW160,0.00,803.00,VWS V14.01,2013-03-07 19:54:00,
2013-03-07 12:59:00,71.9,20.2,30.03,South,177,2.0,5.0,14,0.00,,FEW160,0.00,800.00,VWS V14.01,2013-03-07 19:59:00,
2013-03-07 13:04:00,71.4,18.0,30.02,SSW,202,4.0,10.0,13,0.00,,FEW160,0.00,791.00,VWS V14.01,2013-03-07 20:04:00,
2013-03-07 13:09:00,71.0,19.4,30.02,South,173,0.0,0.0,14,0.00,,FEW160,0.00,786.00,VWS V14.01,2013-03-07 20:09:00,
2013-03-07 13:14:00,71.9,18.4,30.02,SE,134,6.0,7.0,13,0.00,,FEW160,0.00,780.00,VWS V14.01,2013-03-07 20:14:00,
2013-03-07 13:19:00,71.2,17.9,30.02,South,186,2.0,7.0,13,0.00,,FEW160,0.00,773.00,VWS V14.01,2013-03-07 20:19:00,
2013-03-07 13:25:00,71.5,18.1,30.02,SSE,167,0.0,3.0,13,0.00,,FEW160,0.00,765.00,VWS V14.01,2013-03-07 20:25:00,
2013-03-07 13:30:00,71.6,18.2,30.01,South,173,0.0,2.0,13,0.00,,FEW160,0.00,756.00,VWS V14.01,2013-03-07 20:30:00,
2013-03-07 13:35:00,71.0,15.9,30.01,South,188,0.0,4.0,12,0.00,,FEW160,0.00,749.00,VWS V14.01,2013-03-07 20:35:00,
2013-03-07 13:40:00,71.3,16.1,30.00,SSW,195,1.0,2.0,12,0.00,,FEW160,0.00,744.00,VWS V14.01,2013-03-07 20:40:00,
2013-03-07 13:45:00,72.2,16.8,30.00,South,178,3.0,5.0,12,0.00,,FEW160,0.00,737.00,VWS V14.01,2013-03-07 20:45:00,
2013-03-07 13:50:00,71.9,16.6,30.00,South,191,0.0,6.0,12,0.00,,FEW160,0.00,726.00,VWS V14.01,2013-03-07 20:50:00,
2013-03-07 13:55:00,72.4,17.0,30.00,South,181,5.0,11.0,12,0.00,,FEW160,0.00,719.00,VWS V14.01,2013-03-07 20:55:00,
2013-03-07 14:00:00,72.6,17.1,30.00,South,189,2.0,8.0,12,0.00,,FEW160,0.00,708.00,VWS V14.01,2013-03-07 21:00:00,
2013-03-07 14:05:00,73.0,15.4,29.99,South,184,6.0,8.0,11,0.00,,FEW160,0.00,694.00,VWS V14.01,2013-03-07 21:05:00,
2013-03-07 14:10:00,72.7,17.2,29.99,SSE,148,0.0,5.0,12,0.00,,FEW160,0.00,684.00,VWS V14.01,2013-03-07 21:10:00,
2013-03-07 14:15:00,72.8,17.3,29.99,SSW,209,0.0,2.0,12,0.00,,FEW160,0.00,671.00,VWS V14.01,2013-03-07 21:15:00,
2013-03-07 14:20:00,73.7,18.0,29.99,South,177,7.0,8.0,12,0.00,,FEW160,0.00,663.00,VWS V14.01,2013-03-07 21:20:00,
2013-03-07 14:25:00,73.3,17.7,29.99,South,184,7.0,7.0,12,0.00,,FEW160,0.00,647.00,VWS V14.01,2013-03-07 21:25:00,
2013-03-07 14:30:00,73.0,17.4,29.99,SW,234,5.0,5.0,12,0.00,,FEW160,0.00,636.00,VWS V14.01,2013-03-07 21:30:00,
2013-03-07 14:35:00,72.7,17.2,29.98,SSW,211,1.0,4.0,12,0.00,,FEW160,0.00,624.00,VWS V14.01,2013-03-07 21:35:00,
2013-03-07 14:40:00,73.4,17.7,29.98,South,175,0.0,2.0,12,0.00,,FEW160,0.00,610.00,VWS V14.01,2013-03-07 21:40:00,
2013-03-07 14:45:00,73.7,18.0,29.98,SSW,208,3.0,6.0,12,0.00,,FEW160,0.00,596.00,VWS V14.01,2013-03-07 21:45:00,
2013-03-07 14:51:00,73.6,17.9,29.98,West,260,5.0,5.0,12,0.00,,FEW160,0.00,582.00,VWS V14.01,2013-03-07 21:51:00,
2013-03-07 14:56:00,74.1,18.3,29.98,WSW,255,3.0,8.0,12,0.00,,FEW160,0.00,568.00,VWS V14.01,2013-03-07 21:56:00,
2013-03-07 15:01:00,74.4,16.5,29.98,WSW,256,0.0,3.0,11,0.00,,SCT150,0.00,552.00,VWS V14.01,2013-03-07 22:01:00,
2013-03-07 15:06:00,74.6,18.7,29.98,South,185,0.0,2.0,12,0.00,,SCT150,0.00,538.00,VWS V14.01,2013-03-07 22:06:00,
2013-03-07 15:11:00,74.6,16.7,29.98,SSW,194,6.0,10.0,11,0.00,,SCT150,0.00,524.00,VWS V14.01,2013-03-07 22:11:00,
2013-03-07 15:16:00,74.6,18.7,29.97,SW,217,1.0,7.0,12,0.00,,SCT150,0.00,506.00,VWS V14.01,2013-03-07 22:16:00,
2013-03-07 15:21:00,74.4,18.5,29.97,SW,236,2.0,7.0,12,0.00,,SCT150,0.00,489.00,VWS V14.01,2013-03-07 22:21:00,
2013-03-07 15:26:00,73.9,16.1,29.97,West,281,4.0,6.0,11,0.00,,SCT150,0.00,475.00,VWS V14.01,2013-03-07 22:26:00,
2013-03-07 15:31:00,73.7,19.8,29.97,SSE,157,3.0,6.0,13,0.00,,SCT150,0.00,422.00,VWS V14.01,2013-03-07 22:31:00,
2013-03-07 15:36:00,73.5,17.8,29.97,SSE,160,1.0,6.0,12,0.00,,SCT150,0.00,313.00,VWS V14.01,2013-03-07 22:36:00,
2013-03-07 15:41:00,73.3,17.7,29.97,SE,131,0.0,2.0,12,0.00,,SCT150,0.00,255.00,VWS V14.01,2013-03-07 22:41:00,
2013-03-07 15:46:00,73.3,19.5,29.97,SSE,157,0.0,3.0,13,0.00,,SCT150,0.00,320.00,VWS V14.01,2013-03-07 22:46:00,
2013-03-07 15:51:00,73.2,19.5,29.97,South,190,5.0,7.0,13,0.00,,SCT150,0.00,313.00,VWS V14.01,2013-03-07 22:51:00,
2013-03-07 15:56:00,73.1,17.5,29.96,SSW,207,0.0,6.0,12,0.00,,SCT150,0.00,339.00,VWS V14.01,2013-03-07 22:56:00,
2013-03-07 16:02:00,73.0,17.4,29.96,SSW,207,2.0,2.0,12,0.00,,FEW120,0.00,287.00,VWS V14.01,2013-03-07 23:02:00,
2013-03-07 16:06:00,73.1,19.4,29.96,SSW,207,3.0,3.0,13,0.00,,FEW120,0.00,306.00,VWS V14.01,2013-03-07 23:06:00,
2013-03-07 16:12:00,72.7,19.1,29.96,SSE,168,3.0,9.0,13,0.00,,FEW120,0.00,144.00,VWS V14.01,2013-03-07 23:12:00,
2013-03-07 16:17:00,72.2,20.4,29.96,SSW,196,3.0,6.0,14,0.00,,FEW120,0.00,46.00,VWS V14.01,2013-03-07 23:17:00,
2013-03-07 16:22:00,71.5,19.8,29.96,SSW,197,7.0,8.0,14,0.00,,FEW120,0.00,44.00,VWS V14.01,2013-03-07 23:22:00,
2013-03-07 16:27:00,70.8,17.6,29.95,SSW,194,0.0,5.0,13,0.00,,FEW120,0.00,60.00,VWS V14.01,2013-03-07 23:27:00,
2013-03-07 16:32:00,70.2,20.4,29.95,SSW,192,1.0,1.0,15,0.00,,FEW120,0.00,77.00,VWS V14.01,2013-03-07 23:32:00,
2013-03-07 16:37:00,69.9,20.2,29.95,East,95,0.0,6.0,15,0.00,,FEW120,0.00,60.00,VWS V14.01,2013-03-07 23:37:00,
2013-03-07 16:42:00,69.7,20.0,29.95,SSE,147,0.0,2.0,15,0.00,,FEW120,0.00,60.00,VWS V14.01,2013-03-07 23:42:00,
2013-03-07 16:47:00,69.4,19.8,29.95,SSE,147,0.0,0.0,15,0.00,,FEW120,0.00,69.00,VWS V14.01,2013-03-07 23:47:00,
2013-03-07 16:52:00,69.2,19.6,29.95,SSE,147,0.0,3.0,15,0.00,,FEW120,0.00,144.00,VWS V14.01,2013-03-07 23:52:00,
2013-03-07 16:57:00,69.2,19.6,29.95,SE,146,0.0,4.0,15,0.00,,FEW120,0.00,83.00,VWS V14.01,2013-03-07 23:57:00,
2013-03-07 17:02:00,69.3,19.7,29.95,SE,140,0.0,3.0,15,0.00,,SCT160,0.00,74.00,VWS V14.01,2013-03-08 00:02:00,
2013-03-07 17:07:00,69.3,19.7,29.95,SE,140,0.0,1.0,15,0.00,,SCT160,0.00,54.00,VWS V14.01,2013-03-08 00:07:00,
2013-03-07 17:12:00,69.2,19.6,29.94,SE,140,0.0,0.0,15,0.00,,SCT160,0.00,56.00,VWS V14.01,2013-03-08 00:12:00,
2013-03-07 17:17:00,69.2,19.6,29.94,SE,135,0.0,3.0,15,0.00,,SCT160,0.00,65.00,VWS V14.01,2013-03-08 00:17:00,
2013-03-07 17:22:00,69.1,19.5,29.94,SE,135,0.0,1.0,15,0.00,,SCT160,0.00,56.00,VWS V14.01,2013-03-08 00:22:00,
2013-03-07 17:28:00,69.0,19.5,29.94,SE,135,0.0,1.0,15,0.00,,SCT160,0.00,54.00,VWS V14.01,2013-03-08 00:28:00,
2013-03-07 17:33:00,68.9,20.9,29.94,SE,135,0.0,1.0,16,0.00,,SCT250,0.00,49.00,VWS V14.01,2013-03-08 00:33:00,
2013-03-07 17:38:00,68.8,20.8,29.94,SE,135,0.0,2.0,16,0.00,,SCT250,0.00,46.00,VWS V14.01,2013-03-08 00:38:00,
2013-03-07 17:43:00,68.6,19.1,29.94,SE,135,0.0,1.0,15,0.00,,SCT250,0.00,39.00,VWS V14.01,2013-03-08 00:43:00,
2013-03-07 17:48:00,68.6,19.1,29.94,NNE,20,3.0,4.0,15,0.00,,SCT250,0.00,32.00,VWS V14.01,2013-03-08 00:48:00,
2013-03-07 17:53:00,68.5,20.6,29.94,NNE,20,0.0,1.0,16,0.00,,SCT250,0.00,19.00,VWS V14.01,2013-03-08 00:53:00,
2013-03-07 17:58:00,68.4,20.5,29.94,NNE,20,0.0,1.0,16,0.00,,SCT250,0.00,11.00,VWS V14.01,2013-03-08 00:58:00,
2013-03-07 18:03:00,68.2,20.3,29.94,NNE,20,0.0,3.0,16,0.00,,SCT250,0.00,5.00,VWS V14.01,2013-03-08 01:03:00,
2013-03-07 18:08:00,67.9,21.5,29.94,NNE,20,0.0,0.0,17,0.00,,SCT250,0.00,0.00,VWS V14.01,2013-03-08 01:08:00,
2013-03-07 18:13:00,67.7,19.9,29.94,NNE,20,0.0,2.0,16,0.00,,SCT250,0.00,0.00,VWS V14.01,2013-03-08 01:13:00,
2013-03-07 18:18:00,67.4,19.7,29.94,NNE,27,0.0,3.0,16,0.00,,SCT250,0.00,0.00,VWS V14.01,2013-03-08 01:18:00,
2013-03-07 18:23:00,67.1,19.4,29.94,NNE,27,2.0,3.0,16,0.00,,SCT250,0.00,0.00,VWS V14.01,2013-03-08 01:23:00,
2013-03-07 18:28:00,66.8,19.2,29.94,NNE,30,1.0,4.0,16,0.00,,SCT250,0.00,0.00,VWS V14.01,2013-03-08 01:28:00,
2013-03-07 18:33:00,66.6,19.0,29.94,NNE,30,0.0,2.0,16,0.00,,SCT250,0.00,0.00,VWS V14.01,2013-03-08 01:33:00,
2013-03-07 18:38:00,66.3,20.2,29.94,NNE,30,0.0,2.0,17,0.00,,SCT250,0.00,0.00,VWS V14.01,2013-03-08 01:38:00,
2013-03-07 18:43:00,66.2,18.7,29.94,NNE,30,0.0,1.0,16,0.00,,SCT250,0.00,0.00,VWS V14.01,2013-03-08 01:43:00,
2013-03-07 18:48:00,66.0,18.5,29.95,NNE,30,0.0,1.0,16,0.00,,SCT250,0.00,0.00,VWS V14.01,2013-03-08 01:48:00,
2013-03-07 18:54:00,65.8,19.8,29.95,NNE,30,0.0,1.0,17,0.00,,SCT250,0.00,0.00,VWS V14.01,2013-03-08 01:54:00,
2013-03-07 18:59:00,65.7,19.7,29.95,NNE,30,0.0,1.0,17,0.00,,SCT250,0.00,0.00,VWS V14.01,2013-03-08 01:59:00,
2013-03-07 19:04:00,65.5,19.6,29.95,NNE,30,0.0,0.0,17,0.00,,SCT250,0.00,0.00,VWS V14.01,2013-03-08 02:04:00,
2013-03-07 19:09:00,65.3,19.4,29.95,NNE,30,0.0,2.0,17,0.00,,SCT250,0.00,0.00,VWS V14.01,2013-03-08 02:09:00,
2013-03-07 19:14:00,65.1,17.8,29.95,NNE,33,0.0,2.0,16,0.00,,SCT250,0.00,0.00,VWS V14.01,2013-03-08 02:14:00,
2013-03-07 19:19:00,64.9,19.1,29.95,NNE,33,0.0,1.0,17,0.00,,SCT250,0.00,0.00,VWS V14.01,2013-03-08 02:19:00,
2013-03-07 19:24:00,64.7,18.9,29.95,NNE,33,0.0,1.0,17,0.00,,SCT250,0.00,0.00,VWS V14.01,2013-03-08 02:24:00,
2013-03-07 19:29:00,64.5,18.8,29.95,SSE,157,3.0,5.0,17,0.00,,SCT250,0.00,0.00,VWS V14.01,2013-03-08 02:29:00,
2013-03-07 19:34:00,64.1,17.0,29.95,South,171,0.0,0.0,16,0.00,,SCT250,0.00,0.00,VWS V14.01,2013-03-08 02:34:00,
2013-03-07 19:39:00,63.7,16.7,29.95,SSW,192,0.0,0.0,16,0.00,,SCT250,0.00,0.00,VWS V14.01,2013-03-08 02:39:00,
2013-03-07 19:44:00,63.4,17.9,29.95,SSW,192,0.0,0.0,17,0.00,,SCT250,0.00,0.00,VWS V14.01,2013-03-08 02:44:00,
2013-03-07 19:49:00,63.3,17.8,29.95,South,183,1.0,3.0,17,0.00,,SCT250,0.00,0.00,VWS V14.01,2013-03-08 02:49:00,
2013-03-07 19:54:00,63.2,17.7,29.96,SSE,154,2.0,4.0,17,0.00,,SCT250,0.00,0.00,VWS V14.01,2013-03-08 02:54:00,
2013-03-07 19:59:00,63.0,17.5,29.96,South,175,0.0,1.0,17,0.00,,SCT250,0.00,0.00,VWS V14.01,2013-03-08 02:59:00,
2013-03-07 20:04:00,62.9,17.5,29.96,South,184,1.0,1.0,17,0.00,,SCT250,0.00,0.00,VWS V14.01,2013-03-08 03:04:00,
2013-03-07 20:09:00,62.7,17.3,29.96,South,182,0.0,4.0,17,0.00,,SCT250,0.00,0.00,VWS V14.01,2013-03-08 03:09:00,
2013-03-07 20:14:00,62.5,17.1,29.96,South,189,0.0,5.0,17,0.00,,SCT250,0.00,0.00,VWS V14.01,2013-03-08 03:14:00,
2013-03-07 20:20:00,62.3,17.0,29.95,SSW,196,0.0,4.0,17,0.00,,SCT250,0.00,0.00,VWS V14.01,2013-03-08 03:20:00,
2013-03-07 20:25:00,62.1,16.8,29.96,SSW,194,4.0,6.0,17,0.00,,SCT250,0.00,0.00,VWS V14.01,2013-03-08 03:25:00,
2013-03-07 20:30:00,61.8,17.9,29.96,SSW,199,2.0,4.0,18,0.00,,SCT250,0.00,0.00,VWS V14.01,2013-03-08 03:30:00,
2013-03-07 20:35:00,61.6,17.7,29.96,SSW,199,1.0,3.0,18,0.00,,SCT250,0.00,0.00,VWS V14.01,2013-03-08 03:35:00,
2013-03-07 20:40:00,61.4,16.2,29.96,South,186,4.0,6.0,17,0.00,,SCT250,0.00,0.00,VWS V14.01,2013-03-08 03:40:00,
2013-03-07 20:45:00,61.2,17.4,29.96,South,179,1.0,2.0,18,0.00,,SCT250,0.00,0.00,VWS V14.01,2013-03-08 03:45:00,
2013-03-07 20:50:00,60.8,17.0,29.96,South,173,2.0,4.0,18,0.00,,SCT250,0.00,0.00,VWS V14.01,2013-03-08 03:50:00,
2013-03-07 20:55:00,60.5,16.8,29.96,South,189,4.0,5.0,18,0.00,,SCT250,0.00,0.00,VWS V14.01,2013-03-08 03:55:00,
2013-03-07 21:00:00,60.2,17.8,29.96,South,180,1.0,6.0,19,0.00,,SCT250,0.00,0.00,VWS V14.01,2013-03-08 04:00:00,
2013-03-07 21:05:00,59.9,17.6,29.96,SSW,192,2.0,4.0,19,0.00,,SCT250,0.00,0.00,VWS V14.01,2013-03-08 04:05:00,
2013-03-07 21:11:00,59.6,17.3,29.97,South,182,7.0,7.0,19,0.00,,SCT250,0.00,0.00,VWS V14.01,2013-03-08 04:11:00,
2013-03-07 21:16:00,59.3,18.3,29.97,South,173,4.0,6.0,20,0.00,,SCT250,0.00,0.00,VWS V14.01,2013-03-08 04:16:00,
2013-03-07 21:21:00,59.1,18.1,29.97,South,189,0.0,6.0,20,0.00,,SCT250,0.00,0.00,VWS V14.01,2013-03-08 04:21:00,
2013-03-07 21:26:00,58.9,16.7,29.97,South,189,0.0,4.0,19,0.00,,SCT250,0.00,0.00,VWS V14.01,2013-03-08 04:26:00,
2013-03-07 21:31:00,58.6,16.5,29.97,SSW,202,1.0,5.0,19,0.00,,SCT250,0.00,0.00,VWS V14.01,2013-03-08 04:31:00,
2013-03-07 21:36:00,58.2,16.2,29.97,South,184,5.0,7.0,19,0.00,,SCT250,0.00,0.00,VWS V14.01,2013-03-08 04:36:00,
2013-03-07 21:41:00,57.8,17.0,29.97,SSE,159,6.0,6.0,20,0.00,,SCT250,0.00,0.00,VWS V14.01,2013-03-08 04:41:00,
2013-03-07 21:46:00,57.6,16.9,29.97,South,190,3.0,6.0,20,0.00,,SCT250,0.00,0.00,VWS V14.01,2013-03-08 04:46:00,
2013-03-07 21:51:00,57.4,16.7,29.97,South,184,3.0,7.0,20,0.00,,SCT250,0.00,0.00,VWS V14.01,2013-03-08 04:51:00,
2013-03-07 21:56:00,57.3,16.6,29.97,SSW,205,3.0,10.0,20,0.00,,SCT250,0.00,0.00,VWS V14.01,2013-03-08 04:56:00,
2013-03-07 22:00:00,57.4,16.7,29.97,South,184,6.0,7.0,20,0.00,,SCT250,0.00,0.00,VWS V14.01,2013-03-08 05:00:00,
2013-03-07 22:03:00,57.4,16.7,29.97,South,169,0.0,7.0,20,0.00,,SCT200,0.00,0.00,VWS V14.01,2013-03-08 05:03:00,
2013-03-07 22:08:00,57.2,16.5,29.97,South,178,0.0,3.0,20,0.00,,SCT200,0.00,0.00,VWS V14.01,2013-03-08 05:08:00,
2013-03-07 22:13:00,56.9,17.4,29.97,South,178,0.0,5.0,21,0.00,,SCT200,0.00,0.00,VWS V14.01,2013-03-08 05:13:00,
2013-03-07 22:18:00,56.6,17.1,29.98,South,188,0.0,6.0,21,0.00,,SCT200,0.00,0.00,VWS V14.01,2013-03-08 05:18:00,
2013-03-07 22:23:00,56.1,16.7,29.98,South,188,0.0,5.0,21,0.00,,SCT200,0.00,0.00,VWS V14.01,2013-03-08 05:23:00,
2013-03-07 22:28:00,55.8,15.4,29.98,South,188,0.0,3.0,20,0.00,,SCT200,0.00,0.00,VWS V14.01,2013-03-08 05:28:00,
2013-03-07 22:33:00,55.7,12.9,29.98,SW,221,0.0,8.0,18,0.00,,SCT200,0.00,0.00,VWS V14.01,2013-03-08 05:33:00,
2013-03-07 22:38:00,55.8,11.7,29.98,WSW,249,0.0,5.0,17,0.00,,SCT200,0.00,0.00,VWS V14.01,2013-03-08 05:38:00,
2013-03-07 22:43:00,55.7,11.6,29.99,South,190,0.0,5.0,17,0.00,,SCT200,0.00,0.00,VWS V14.01,2013-03-08 05:43:00,
2013-03-07 22:48:00,55.7,12.9,29.99,South,190,1.0,5.0,18,0.00,,SCT200,0.00,0.00,VWS V14.01,2013-03-08 05:48:00,
2013-03-07 22:53:00,55.4,13.9,29.99,South,190,1.0,2.0,19,0.00,,SCT200,0.00,0.00,VWS V14.01,2013-03-08 05:53:00,
2013-03-07 22:58:00,55.1,14.8,29.99,South,190,0.0,2.0,20,0.00,,SCT200,0.00,0.00,VWS V14.01,2013-03-08 05:58:00,
2013-03-07 23:04:00,54.9,13.4,30.00,South,190,0.0,2.0,19,0.00,,FEW120,0.00,0.00,VWS V14.01,2013-03-08 06:04:00,
2013-03-07 23:09:00,54.5,14.3,30.00,South,190,0.0,2.0,20,0.00,,FEW120,0.00,0.00,VWS V14.01,2013-03-08 06:09:00,
2013-03-07 23:14:00,54.3,14.1,30.00,South,190,0.0,1.0,20,0.00,,FEW120,0.00,0.00,VWS V14.01,2013-03-08 06:14:00,
2013-03-07 23:19:00,54.1,13.9,30.00,South,190,0.0,0.0,20,0.00,,FEW120,0.00,0.00,VWS V14.01,2013-03-08 06:19:00,
2013-03-07 23:24:00,53.8,12.5,30.00,South,190,3.0,5.0,19,0.00,,FEW120,0.00,0.00,VWS V14.01,2013-03-08 06:24:00,
2013-03-07 23:29:00,53.8,12.5,30.01,South,190,0.0,0.0,19,0.00,,FEW120,0.00,0.00,VWS V14.01,2013-03-08 06:29:00,
2013-03-07 23:34:00,53.8,12.5,30.01,South,190,0.0,0.0,19,0.00,,FEW120,0.00,0.00,VWS V14.01,2013-03-08 06:34:00,
2013-03-07 23:39:00,53.8,13.7,30.01,South,190,0.0,0.0,20,0.00,,FEW120,0.00,0.00,VWS V14.01,2013-03-08 06:39:00,
2013-03-07 23:44:00,53.7,12.4,30.01,South,190,0.0,0.0,19,0.00,,FEW120,0.00,0.00,VWS V14.01,2013-03-08 06:44:00,
2013-03-07 23:49:00,53.6,13.5,30.01,South,190,0.0,0.0,20,0.00,,FEW120,0.00,0.00,VWS V14.01,2013-03-08 06:49:00,
2013-03-07 23:54:00,53.5,13.4,30.01,South,190,0.0,0.0,20,0.00,,FEW120,0.00,0.00,VWS V14.01,2013-03-08 06:54:00,
2013-03-07 23:59:00,53.2,13.2,30.02,South,190,0.0,0.0,20,0.00,,FEW120,0.00,0.00,VWS V14.01,2013-03-08 06:59:00,